Time;durP1;ratioP1;P1;durP2;ratioP2;P2;SDS_P1;SDS_P2;PMS_P1;PMS_P2;Temp;Humidity;BMP_temperature;BMP_pressure;BME280_temperature;BME280_humidity;BME280_pressure;Samples;Min_cycle;Max_cycle;Signal;HPM_P1;HPM_P2
2022/07/24 00:00:17;;;;;;;3.90;1.08;;;16.20;81.90;;;;;;4937219;29;20074;-69
2022/07/24 00:02:43;;;;;;;1.75;1.15;;;16.10;81.80;;;;;;4937488;28;20114;-69
2022/07/24 00:05:09;;;;;;;1.50;0.98;;;16.20;82.00;;;;;;4933793;29;20043;-69
2022/07/24 00:07:36;;;;;;;1.85;1.20;;;16.10;81.90;;;;;;4939693;29;20048;-69
2022/07/24 00:10:04;;;;;;;1.42;1.02;;;16.10;81.90;;;;;;4942537;28;20098;-69
2022/07/24 00:12:30;;;;;;;1.88;1.20;;;16.10;82.70;;;;;;4942352;29;20510;-69
2022/07/24 00:14:56;;;;;;;1.13;0.93;;;16.00;82.20;;;;;;4941653;29;20067;-69
2022/07/24 00:17:21;;;;;;;0.82;0.80;;;16.10;82.20;;;;;;4939543;29;20039;-69
2022/07/24 00:19:47;;;;;;;3.25;1.27;;;16.10;82.10;;;;;;4939344;28;20035;-69
2022/07/24 00:22:13;;;;;;;0.80;0.80;;;16.00;81.80;;;;;;4935006;29;20040;-69
2022/07/24 00:24:39;;;;;;;1.58;0.85;;;16.00;81.90;;;;;;4936187;29;20035;-69
2022/07/24 00:27:04;;;;;;;0.70;0.70;;;16.00;81.70;;;;;;4940046;29;20380;-70
2022/07/24 00:29:30;;;;;;;1.95;1.05;;;16.00;81.60;;;;;;4941437;28;20349;-69
2022/07/24 00:31:56;;;;;;;1.80;0.75;;;16.00;81.70;;;;;;4940496;28;20042;-70
2022/07/24 00:34:22;;;;;;;1.48;0.80;;;16.00;81.80;;;;;;4937620;29;20168;-69
2022/07/24 00:36:48;;;;;;;2.67;1.02;;;16.00;81.90;;;;;;4938812;28;20071;-68
2022/07/24 00:39:13;;;;;;;1.63;0.80;;;16.00;82.00;;;;;;4935661;28;20039;-69
2022/07/24 00:41:39;;;;;;;0.70;0.60;;;16.00;82.10;;;;;;4936353;29;20039;-69
2022/07/24 00:44:08;;;;;;;1.02;0.70;;;16.00;82.30;;;;;;4932705;29;20040;-69
2022/07/24 00:46:35;;;;;;;0.80;0.80;;;16.00;82.50;;;;;;4942642;28;20408;-69
2022/07/24 00:49:04;;;;;;;0.80;0.80;;;15.90;82.80;;;;;;4941500;28;20039;-69
2022/07/24 00:51:30;;;;;;;2.03;0.77;;;15.90;83.20;;;;;;4940198;28;20042;-69
2022/07/24 00:53:56;;;;;;;2.35;0.82;;;15.90;83.40;;;;;;4938877;28;20106;-69
2022/07/24 00:56:22;;;;;;;2.22;0.70;;;15.90;83.60;;;;;;4937277;29;20119;-68
2022/07/24 00:58:48;;;;;;;0.90;0.90;;;15.90;83.80;;;;;;4939346;29;20059;-69
2022/07/24 01:01:15;;;;;;;1.77;1.02;;;15.80;83.90;;;;;;4933869;28;20118;-69
2022/07/24 01:03:41;;;;;;;0.98;0.85;;;15.80;84.00;;;;;;4934971;28;20028;-69
2022/07/24 01:06:07;;;;;;;1.60;1.13;;;15.80;84.00;;;;;;4941534;28;20046;-69
2022/07/24 01:08:34;;;;;;;0.68;0.68;;;15.80;84.00;;;;;;4941114;28;20051;-68
2022/07/24 01:11:04;;;;;;;1.45;0.88;;;15.80;84.10;;;;;;4938750;28;20061;-69
2022/07/24 01:13:30;;;;;;;1.85;1.08;;;15.70;84.40;;;;;;4938640;29;20031;-69
2022/07/24 01:15:57;;;;;;;1.88;1.02;;;15.70;84.20;;;;;;4936196;29;20028;-69
2022/07/24 01:18:23;;;;;;;3.65;1.20;;;15.70;84.30;;;;;;4935631;29;20082;-69
2022/07/24 01:20:50;;;;;;;2.28;1.10;;;15.60;84.70;;;;;;4934217;28;20031;-69
2022/07/24 01:23:15;;;;;;;1.80;1.33;;;15.60;84.80;;;;;;4936265;29;20412;-69
2022/07/24 01:25:42;;;;;;;0.85;0.85;;;15.60;84.80;;;;;;4941076;28;20031;-69
2022/07/24 01:28:08;;;;;;;2.08;1.17;;;15.50;85.10;;;;;;4939009;29;20037;-69
2022/07/24 01:30:34;;;;;;;1.80;0.90;;;15.50;85.50;;;;;;4939336;28;20035;-69
2022/07/24 01:33:00;;;;;;;3.20;1.00;;;15.40;85.90;;;;;;4936968;28;20093;-69
2022/07/24 01:35:26;;;;;;;1.10;0.82;;;15.40;86.40;;;;;;4939815;29;20039;-69
2022/07/24 01:37:53;;;;;;;1.55;1.30;;;15.40;86.60;;;;;;4937815;28;20101;-68
2022/07/24 01:40:20;;;;;;;1.50;1.30;;;15.40;86.20;;;;;;4934775;28;20559;-69
2022/07/24 01:42:47;;;;;;;1.55;1.30;;;15.40;86.00;;;;;;4941315;29;20846;-69
2022/07/24 01:45:13;;;;;;;1.17;1.08;;;15.30;86.20;;;;;;4943805;28;20035;-69
2022/07/24 01:47:40;;;;;;;1.08;1.00;;;15.30;86.50;;;;;;4943015;29;20043;-69
2022/07/24 01:50:06;;;;;;;1.30;0.98;;;15.30;86.80;;;;;;4942230;28;20054;-69
2022/07/24 01:52:32;;;;;;;2.38;1.05;;;15.30;87.10;;;;;;4940913;28;20023;-69
2022/07/24 01:54:58;;;;;;;2.38;1.40;;;15.30;87.40;;;;;;4940832;28;20045;-69
2022/07/24 01:57:23;;;;;;;0.95;0.95;;;15.20;87.70;;;;;;4937892;29;20035;-69
2022/07/24 01:59:49;;;;;;;3.65;1.33;;;15.20;88.00;;;;;;4936266;28;20114;-69
2022/07/24 02:02:15;;;;;;;3.10;1.00;;;15.20;88.10;;;;;;4943072;29;20031;-69
2022/07/24 02:04:40;;;;;;;10.32;1.05;;;15.20;88.50;;;;;;4943858;28;20607;-70
2022/07/24 02:07:06;;;;;;;1.83;1.08;;;15.10;88.60;;;;;;4941325;28;20023;-69
2022/07/24 02:09:32;;;;;;;2.17;1.17;;;15.10;88.60;;;;;;4941320;28;20046;-69
2022/07/24 02:11:58;;;;;;;1.05;0.90;;;15.10;88.80;;;;;;4939051;29;20085;-69
2022/07/24 02:14:23;;;;;;;1.23;1.00;;;15.10;88.90;;;;;;4942002;29;20134;-69
2022/07/24 02:16:49;;;;;;;1.85;1.02;;;15.10;89.20;;;;;;4937914;29;20114;-69
2022/07/24 02:19:15;;;;;;;1.20;1.10;;;15.10;89.20;;;;;;4935683;28;20036;-69
2022/07/24 02:21:41;;;;;;;1.30;1.20;;;15.00;89.20;;;;;;4944248;28;20031;-70
2022/07/24 02:24:06;;;;;;;2.15;1.48;;;15.00;89.20;;;;;;4943869;28;20031;-69
2022/07/24 02:26:32;;;;;;;1.52;1.40;;;15.00;89.10;;;;;;4942579;29;20031;-69
2022/07/24 02:28:58;;;;;;;1.90;1.35;;;15.00;88.90;;;;;;4941147;28;20459;-69
2022/07/24 02:31:24;;;;;;;1.45;1.35;;;14.90;88.80;;;;;;4941231;28;20043;-70
2022/07/24 02:33:50;;;;;;;2.20;1.63;;;14.90;88.80;;;;;;4938617;28;20820;-69
2022/07/24 02:36:15;;;;;;;2.30;1.40;;;14.90;88.60;;;;;;4935568;29;20073;-69
2022/07/24 02:38:42;;;;;;;1.95;1.30;;;14.80;88.80;;;;;;4940823;28;20094;-69
2022/07/24 02:41:08;;;;;;;1.52;1.27;;;14.80;89.00;;;;;;4943856;28;20584;-69
2022/07/24 02:43:34;;;;;;;2.10;1.13;;;14.70;89.10;;;;;;4941894;28;20023;-69
2022/07/24 02:45:59;;;;;;;1.40;1.30;;;14.70;89.50;;;;;;4941923;28;20165;-69
2022/07/24 02:48:25;;;;;;;1.70;1.25;;;14.70;89.90;;;;;;4939320;29;20174;-69
2022/07/24 02:50:51;;;;;;;2.55;1.40;;;14.70;90.10;;;;;;4940732;28;20039;-69
2022/07/24 02:53:17;;;;;;;1.50;1.40;;;14.60;90.20;;;;;;4935938;29;20058;-70
2022/07/24 02:55:42;;;;;;;2.53;1.83;;;14.60;90.30;;;;;;4936759;29;20046;-69
2022/07/24 02:58:08;;;;;;;2.53;1.33;;;14.70;90.50;;;;;;4941435;29;20094;-69
2022/07/24 03:00:34;;;;;;;2.67;1.45;;;14.70;90.60;;;;;;4944031;28;20030;-70
2022/07/24 03:03:01;;;;;;;1.42;1.33;;;14.70;90.60;;;;;;4942205;29;20043;-69
2022/07/24 03:05:27;;;;;;;1.95;1.20;;;14.70;90.60;;;;;;4941454;29;20066;-69
2022/07/24 03:07:53;;;;;;;1.08;1.00;;;14.70;90.60;;;;;;4940583;29;20077;-70
2022/07/24 03:10:19;;;;;;;1.80;1.40;;;14.70;90.60;;;;;;4937926;28;20047;-69
2022/07/24 03:12:45;;;;;;;1.20;1.10;;;14.70;90.60;;;;;;4937942;29;20061;-69
2022/07/24 03:15:12;;;;;;;2.90;1.30;;;14.70;90.30;;;;;;4938771;29;20094;-69
2022/07/24 03:17:38;;;;;;;1.58;1.40;;;14.70;90.20;;;;;;4944400;29;20249;-69
2022/07/24 03:20:05;;;;;;;1.25;1.15;;;14.60;90.30;;;;;;4942124;28;20551;-69
2022/07/24 03:22:31;;;;;;;1.42;1.30;;;14.60;90.70;;;;;;4941874;29;20499;-70
2022/07/24 03:24:56;;;;;;;1.30;1.08;;;14.60;90.40;;;;;;4942011;28;20047;-69
2022/07/24 03:27:22;;;;;;;1.48;1.38;;;14.60;90.50;;;;;;4938692;29;20028;-70
2022/07/24 03:29:48;;;;;;;3.55;1.25;;;14.60;90.50;;;;;;4938524;28;20082;-70
2022/07/24 03:32:14;;;;;;;1.33;1.23;;;14.60;90.50;;;;;;4935033;28;20526;-70
2022/07/24 03:34:40;;;;;;;1.20;1.10;;;14.60;90.60;;;;;;4937007;29;20121;-69
2022/07/24 03:37:05;;;;;;;1.85;1.50;;;14.60;90.70;;;;;;4942687;28;20126;-69
2022/07/24 03:39:31;;;;;;;1.83;1.30;;;14.60;90.70;;;;;;4942487;28;20027;-69
2022/07/24 03:41:57;;;;;;;1.70;1.38;;;14.60;90.80;;;;;;4940485;28;20047;-69
2022/07/24 03:44:23;;;;;;;1.55;1.20;;;14.60;90.90;;;;;;4940256;29;20091;-70
2022/07/24 03:46:48;;;;;;;2.20;1.35;;;14.60;91.00;;;;;;4941722;28;20472;-69
2022/07/24 03:49:14;;;;;;;2.30;1.25;;;14.60;91.00;;;;;;4936000;28;20130;-69
2022/07/24 03:51:40;;;;;;;0.98;0.90;;;14.60;91.00;;;;;;4936799;28;20126;-69
2022/07/24 03:54:06;;;;;;;1.55;1.45;;;14.60;91.00;;;;;;4935847;29;20035;-69
2022/07/24 03:56:31;;;;;;;1.85;1.50;;;14.60;91.10;;;;;;4942973;28;20082;-69
2022/07/24 03:58:57;;;;;;;4.63;0.93;;;14.70;91.10;;;;;;4941612;29;20542;-69
2022/07/24 04:01:23;;;;;;;1.63;1.13;;;14.70;90.60;;;;;;4941689;28;20038;-69
2022/07/24 04:03:49;;;;;;;1.00;0.90;;;14.70;90.50;;;;;;4938973;28;20075;-69
2022/07/24 04:06:15;;;;;;;1.38;1.08;;;14.60;90.60;;;;;;4939231;29;20039;-69
2022/07/24 04:08:41;;;;;;;2.80;1.50;;;14.60;90.70;;;;;;4937737;28;20488;-69
2022/07/24 04:11:07;;;;;;;2.30;1.63;;;14.70;90.80;;;;;;4933449;28;20101;-69
2022/07/24 04:13:33;;;;;;;1.35;1.25;;;14.60;90.80;;;;;;4939398;28;20046;-69
2022/07/24 04:15:59;;;;;;;1.48;1.25;;;14.60;91.00;;;;;;4942366;29;20051;-69
2022/07/24 04:18:26;;;;;;;2.45;1.55;;;14.60;91.20;;;;;;4940548;29;20114;-69
2022/07/24 04:20:52;;;;;;;2.63;1.60;;;14.60;91.30;;;;;;4939984;28;20016;-69
2022/07/24 04:23:18;;;;;;;1.85;1.70;;;14.70;91.50;;;;;;4937477;29;20023;-69
2022/07/24 04:25:44;;;;;;;2.55;1.88;;;14.70;91.50;;;;;;4937638;29;20035;-69
2022/07/24 04:28:10;;;;;;;1.38;1.27;;;14.70;91.90;;;;;;4934554;29;20044;-69
2022/07/24 04:30:36;;;;;;;2.78;1.70;;;14.70;91.70;;;;;;4936233;28;20027;-68
2022/07/24 04:33:02;;;;;;;2.50;1.65;;;14.70;91.70;;;;;;4939440;29;20555;-69
2022/07/24 04:35:27;;;;;;;3.58;1.73;;;14.80;91.80;;;;;;4941475;29;20780;-69
2022/07/24 04:37:53;;;;;;;2.05;1.70;;;14.80;91.80;;;;;;4941567;28;20027;-69
2022/07/24 04:40:19;;;;;;;1.75;1.65;;;14.80;91.80;;;;;;4940512;28;20034;-69
2022/07/24 04:42:45;;;;;;;2.42;1.80;;;14.90;91.80;;;;;;4939723;28;20031;-69
2022/07/24 04:45:11;;;;;;;1.90;1.40;;;14.90;91.80;;;;;;4936984;29;20038;-69
2022/07/24 04:47:37;;;;;;;1.85;1.63;;;14.90;91.70;;;;;;4937956;29;20037;-69
2022/07/24 04:50:05;;;;;;;1.98;1.63;;;14.90;91.70;;;;;;4936005;28;20043;-69
2022/07/24 04:52:31;;;;;;;6.00;1.92;;;15.00;91.80;;;;;;4942154;28;20023;-69
2022/07/24 04:54:57;;;;;;;2.00;1.50;;;15.00;91.70;;;;;;4941312;29;20105;-69
2022/07/24 04:57:22;;;;;;;2.45;1.40;;;15.00;91.70;;;;;;4939116;29;20042;-69
2022/07/24 04:59:49;;;;;;;1.65;1.55;;;15.10;91.70;;;;;;4939261;28;20038;-69
2022/07/24 05:02:15;;;;;;;1.60;1.42;;;15.10;91.70;;;;;;4936030;29;20220;-69
2022/07/24 05:04:40;;;;;;;3.05;1.80;;;15.10;91.80;;;;;;4937308;29;20480;-69
2022/07/24 05:07:06;;;;;;;2.15;1.70;;;15.10;91.80;;;;;;4932452;29;20036;-69
2022/07/24 05:09:32;;;;;;;3.05;1.90;;;15.20;91.80;;;;;;4935144;28;20224;-69
2022/07/24 05:11:57;;;;;;;3.22;2.20;;;15.30;91.90;;;;;;4938523;29;20042;-69
2022/07/24 05:14:23;;;;;;;3.22;2.15;;;15.30;91.90;;;;;;4941130;28;20082;-69
2022/07/24 05:16:49;;;;;;;3.30;2.20;;;15.40;92.00;;;;;;4945637;28;20049;-69
2022/07/24 05:19:15;;;;;;;2.28;2.08;;;15.40;92.00;;;;;;4940539;28;20031;-69
2022/07/24 05:21:41;;;;;;;1.95;1.85;;;15.50;92.00;;;;;;4941353;29;20034;-69
2022/07/24 05:24:07;;;;;;;1.88;1.77;;;15.50;92.00;;;;;;4937238;28;20443;-69
2022/07/24 05:26:32;;;;;;;2.50;1.90;;;15.60;92.00;;;;;;4938928;29;20040;-69
2022/07/24 05:29:05;;;;;;;2.05;1.73;;;15.70;92.00;;;;;;4942851;28;20066;-69
2022/07/24 05:31:32;;;;;;;1.80;1.70;;;15.70;92.00;;;;;;4937818;28;20028;-69
2022/07/24 05:33:58;;;;;;;1.50;1.40;;;15.80;92.30;;;;;;4944623;28;20035;-69
2022/07/24 05:36:25;;;;;;;1.55;1.45;;;15.90;92.00;;;;;;4941486;29;20056;-69
2022/07/24 05:38:50;;;;;;;2.30;1.70;;;16.00;91.90;;;;;;4941023;29;20063;-69
2022/07/24 05:41:16;;;;;;;2.88;2.42;;;16.00;91.70;;;;;;4938071;28;20016;-69
2022/07/24 05:43:42;;;;;;;4.40;2.40;;;16.10;91.50;;;;;;4939213;29;20062;-69
2022/07/24 05:46:08;;;;;;;2.70;2.30;;;16.30;91.40;;;;;;4935543;29;20941;-69
2022/07/24 05:48:33;;;;;;;4.57;2.20;;;16.40;91.10;;;;;;4944771;29;20038;-69
2022/07/24 05:50:59;;;;;;;2.95;1.92;;;16.50;91.00;;;;;;4943986;28;20089;-69
2022/07/24 05:53:25;;;;;;;2.03;1.80;;;16.60;90.90;;;;;;4941526;29;20078;-69
2022/07/24 05:55:51;;;;;;;3.88;2.10;;;16.70;90.80;;;;;;4942175;28;20075;-70
2022/07/24 05:58:17;;;;;;;2.13;1.45;;;16.80;90.30;;;;;;4938781;29;20119;-67
2022/07/24 06:00:44;;;;;;;2.17;1.80;;;16.90;90.20;;;;;;4939178;28;20031;-69
2022/07/24 06:03:10;;;;;;;2.30;1.90;;;16.90;90.00;;;;;;4935540;29;20114;-69
2022/07/24 06:05:35;;;;;;;2.20;1.70;;;17.10;88.20;;;;;;4938057;29;20058;-69
2022/07/24 06:08:01;;;;;;;2.88;1.55;;;17.20;87.10;;;;;;4943508;29;20035;-69
2022/07/24 06:10:27;;;;;;;2.70;1.50;;;17.20;86.10;;;;;;4943020;28;20039;-69
2022/07/24 06:12:53;;;;;;;1.20;1.10;;;17.30;84.60;;;;;;4942314;29;20039;-69
2022/07/24 06:15:19;;;;;;;1.95;1.40;;;17.40;84.10;;;;;;4939783;29;20044;-69
2022/07/24 06:17:45;;;;;;;1.33;1.15;;;17.50;83.80;;;;;;4940785;28;20047;-69
2022/07/24 06:20:16;;;;;;;2.40;1.30;;;17.60;83.00;;;;;;4936148;28;20813;-69
2022/07/24 06:22:43;;;;;;;1.85;1.15;;;17.70;82.30;;;;;;4937332;29;20130;-69
2022/07/24 06:25:10;;;;;;;1.45;1.10;;;17.70;81.20;;;;;;4938024;28;20042;-69
2022/07/24 06:27:44;;;;;;;1.88;0.90;;;17.90;80.70;;;;;;4943632;28;20147;-69
2022/07/24 06:30:21;;;;;;;1.42;1.10;;;17.90;80.00;;;;;;4941625;28;20596;-69
2022/07/24 06:32:48;;;;;;;2.88;1.02;;;17.90;78.90;;;;;;4940919;28;20031;-69
2022/07/24 06:35:15;;;;;;;2.45;1.27;;;18.10;79.20;;;;;;4937766;28;20047;-69
2022/07/24 06:37:41;;;;;;;2.17;1.17;;;18.20;78.70;;;;;;4939354;29;20194;-69
2022/07/24 06:40:08;;;;;;;3.22;1.20;;;18.20;77.70;;;;;;4935173;28;20742;-69
2022/07/24 06:42:34;;;;;;;3.72;1.25;;;18.30;76.80;;;;;;4937126;29;20487;-69
2022/07/24 06:45:00;;;;;;;1.58;1.02;;;18.40;76.20;;;;;;4941382;29;20046;-69
2022/07/24 06:47:26;;;;;;;1.95;1.20;;;18.40;75.90;;;;;;4942498;29;20031;-69
2022/07/24 06:49:55;;;;;;;3.10;1.20;;;18.50;75.90;;;;;;4935465;28;20456;-69
2022/07/24 06:52:22;;;;;;;3.83;1.15;;;18.60;75.40;;;;;;4939819;29;20084;-69
2022/07/24 06:54:48;;;;;;;1.33;1.20;;;18.60;74.80;;;;;;4940376;28;20444;-69
2022/07/24 06:57:14;;;;;;;4.43;1.42;;;18.70;75.50;;;;;;4938756;29;20067;-69
2022/07/24 06:59:40;;;;;;;2.28;1.10;;;18.80;75.10;;;;;;4939757;28;20114;-69
2022/07/24 07:02:06;;;;;;;1.27;0.88;;;18.90;74.80;;;;;;4939064;29;20073;-69
2022/07/24 07:04:32;;;;;;;2.05;1.13;;;18.90;74.30;;;;;;4944578;28;20570;-69
2022/07/24 07:06:57;;;;;;;1.83;1.10;;;19.00;74.10;;;;;;4942748;29;20118;-69
2022/07/24 07:09:23;;;;;;;6.03;1.20;;;19.10;73.60;;;;;;4940492;28;20031;-69
2022/07/24 07:11:49;;;;;;;1.70;1.10;;;19.20;73.80;;;;;;4939803;28;20039;-69
2022/07/24 07:14:15;;;;;;;2.25;0.93;;;19.30;73.10;;;;;;4936733;29;20042;-69
2022/07/24 07:16:40;;;;;;;2.20;1.10;;;19.40;72.70;;;;;;4938150;28;20027;-69
2022/07/24 07:19:06;;;;;;;4.35;1.23;;;19.40;72.80;;;;;;4933445;29;20127;-69
2022/07/24 07:21:32;;;;;;;1.80;1.20;;;19.50;72.90;;;;;;4939728;29;20106;-69
2022/07/24 07:23:58;;;;;;;1.60;1.05;;;19.60;72.90;;;;;;4939963;29;20440;-69
2022/07/24 07:26:23;;;;;;;1.58;1.00;;;19.70;72.00;;;;;;4941377;28;20051;-69
2022/07/24 07:28:49;;;;;;;3.72;1.00;;;19.80;71.90;;;;;;4941801;28;20178;-69
2022/07/24 07:31:15;;;;;;;2.55;1.10;;;19.80;71.40;;;;;;4938247;28;20401;-69
2022/07/24 07:33:41;;;;;;;1.67;1.00;;;19.90;71.40;;;;;;4939148;28;20098;-69
2022/07/24 07:36:08;;;;;;;2.33;1.13;;;20.00;70.80;;;;;;4935265;28;20087;-69
2022/07/24 07:38:36;;;;;;;1.95;0.90;;;20.10;70.00;;;;;;4936856;28;20028;-69
2022/07/24 07:41:02;;;;;;;1.67;1.20;;;20.10;69.90;;;;;;4940676;28;20034;-69
2022/07/24 07:43:28;;;;;;;3.83;1.30;;;20.20;70.00;;;;;;4942786;29;20027;-69
2022/07/24 07:45:53;;;;;;;4.05;0.88;;;20.20;69.80;;;;;;4942192;28;20064;-70
2022/07/24 07:48:19;;;;;;;2.90;1.10;;;20.30;69.70;;;;;;4939418;29;20071;-69
2022/07/24 07:50:45;;;;;;;3.15;0.98;;;20.40;68.90;;;;;;4931582;28;20036;-69
2022/07/24 07:53:11;;;;;;;3.80;1.20;;;20.50;68.70;;;;;;4937898;29;20047;-69
2022/07/24 07:55:36;;;;;;;2.92;1.20;;;20.50;68.00;;;;;;4937941;28;20035;-69
2022/07/24 07:58:03;;;;;;;4.00;1.13;;;20.60;67.70;;;;;;4933346;29;20031;-69
2022/07/24 08:00:29;;;;;;;1.65;0.85;;;20.60;67.50;;;;;;4943208;28;20139;-69
2022/07/24 08:02:55;;;;;;;2.20;1.20;;;20.70;67.00;;;;;;4941964;28;20487;-69
2022/07/24 08:05:20;;;;;;;1.80;0.90;;;20.70;67.20;;;;;;4940148;28;20090;-69
2022/07/24 08:07:46;;;;;;;1.50;1.00;;;20.80;66.90;;;;;;4940422;28;20146;-69
2022/07/24 08:10:12;;;;;;;1.83;0.98;;;20.90;66.60;;;;;;4936831;28;20032;-69
2022/07/24 08:12:38;;;;;;;2.40;1.00;;;20.90;66.20;;;;;;4937744;28;20480;-69
2022/07/24 08:15:05;;;;;;;2.45;1.02;;;21.00;65.40;;;;;;4933556;29;20118;-70
2022/07/24 08:17:30;;;;;;;4.65;1.20;;;21.10;66.10;;;;;;4942201;29;20559;-69
2022/07/24 08:19:56;;;;;;;2.28;0.90;;;21.20;66.10;;;;;;4943081;28;20125;-69
2022/07/24 08:22:22;;;;;;;2.75;0.90;;;21.20;65.50;;;;;;4940800;28;20676;-69
2022/07/24 08:24:47;;;;;;;2.22;1.13;;;21.30;65.80;;;;;;4941288;28;20052;-69
2022/07/24 08:27:13;;;;;;;1.63;1.17;;;21.40;64.70;;;;;;4937978;28;20032;-69
2022/07/24 08:29:39;;;;;;;3.00;0.90;;;21.40;64.40;;;;;;4938474;28;20499;-69
2022/07/24 08:32:05;;;;;;;2.55;0.90;;;21.40;63.80;;;;;;4934251;28;20039;-68
2022/07/24 08:34:31;;;;;;;6.72;1.08;;;21.30;64.00;;;;;;4936683;29;20035;-69
2022/07/24 08:36:56;;;;;;;4.38;1.05;;;21.40;63.20;;;;;;4935969;28;20104;-69
2022/07/24 08:39:22;;;;;;;3.20;1.23;;;21.50;63.60;;;;;;4941768;28;20075;-69
2022/07/24 08:41:48;;;;;;;2.97;1.13;;;21.60;63.80;;;;;;4940941;28;20077;-69
2022/07/24 08:44:14;;;;;;;1.27;0.82;;;21.60;63.00;;;;;;4938505;29;20087;-69
2022/07/24 08:46:41;;;;;;;1.85;0.90;;;21.70;61.80;;;;;;4938834;28;20035;-69
2022/07/24 08:49:12;;;;;;;2.22;1.20;;;21.80;61.50;;;;;;4936416;28;20835;-69
2022/07/24 08:51:40;;;;;;;1.45;0.88;;;21.90;62.30;;;;;;4940752;28;20047;-69
2022/07/24 08:54:07;;;;;;;1.50;1.13;;;21.90;61.60;;;;;;4936439;29;20046;-69
2022/07/24 08:56:33;;;;;;;0.80;0.70;;;22.10;62.00;;;;;;4942929;29;20035;-69
2022/07/24 08:59:00;;;;;;;2.47;1.13;;;22.10;61.60;;;;;;4945691;29;20031;-69
2022/07/24 09:01:27;;;;;;;2.47;1.00;;;22.30;61.50;;;;;;4943301;28;20122;-70
2022/07/24 09:03:53;;;;;;;2.05;0.98;;;22.40;60.30;;;;;;4943144;28;20019;-69
2022/07/24 09:06:18;;;;;;;3.78;1.02;;;22.50;60.20;;;;;;4940437;29;20063;-69
2022/07/24 09:09:04;;;;;;;1.20;0.93;;;22.60;59.90;;;;;;4940970;29;20044;-69
2022/07/24 09:11:35;;;;;;;3.78;1.10;;;22.70;60.00;;;;;;4940309;29;20078;-70
2022/07/24 09:16:47;;;;;;;0.68;0.68;;;22.80;58.20;;;;;;4943867;29;20098;-69
2022/07/24 09:19:13;;;;;;;2.47;0.73;;;22.80;57.90;;;;;;4945037;28;20062;-69
2022/07/24 09:21:40;;;;;;;1.60;0.90;;;22.80;57.30;;;;;;4943054;28;20183;-69
2022/07/24 09:24:18;;;;;;;2.38;1.08;;;22.90;57.80;;;;;;4940264;28;20035;-69
2022/07/24 09:26:58;;;;;;;1.20;0.90;;;23.00;57.80;;;;;;4940306;29;20454;-69
2022/07/24 09:29:25;;;;;;;2.67;0.85;;;23.00;56.80;;;;;;4938767;28;20035;-69
2022/07/24 09:32:02;;;;;;;4.05;1.00;;;23.10;57.80;;;;;;4936418;28;20035;-69
2022/07/24 09:34:29;;;;;;;1.15;0.88;;;23.20;57.00;;;;;;4944939;29;20039;-69
2022/07/24 09:36:56;;;;;;;0.93;0.80;;;23.30;56.40;;;;;;4944676;28;20386;-69
2022/07/24 09:39:25;;;;;;;2.08;0.80;;;23.40;56.30;;;;;;4942334;28;20036;-69
2022/07/24 09:41:55;;;;;;;1.92;1.08;;;23.50;55.30;;;;;;4940388;29;20054;-69
2022/07/24 09:44:23;;;;;;;0.75;0.73;;;23.50;55.10;;;;;;4939985;29;20707;-69
2022/07/24 09:46:59;;;;;;;0.57;0.57;;;23.60;54.20;;;;;;4938927;28;20031;-70
2022/07/24 09:49:26;;;;;;;0.60;0.60;;;23.60;53.60;;;;;;4938494;28;20055;-70
2022/07/24 09:52:12;;;;;;;1.58;0.80;;;23.70;54.50;;;;;;4937607;28;20039;-70
2022/07/24 09:54:50;;;;;;;1.75;0.90;;;23.90;53.80;;;;;;4939032;29;20399;-69
2022/07/24 09:57:23;;;;;;;1.05;0.70;;;24.00;52.80;;;;;;4942394;28;20051;-70
2022/07/24 09:59:57;;;;;;;0.95;0.77;;;24.00;52.60;;;;;;4942958;28;20094;-70
2022/07/24 10:02:31;;;;;;;1.42;0.70;;;24.00;52.20;;;;;;4939374;29;20036;-70
2022/07/24 10:05:00;;;;;;;1.00;0.77;;;24.10;52.90;;;;;;4938922;28;20131;-69
2022/07/24 10:07:27;;;;;;;1.85;0.80;;;24.20;52.80;;;;;;4938778;29;20045;-69
2022/07/24 10:09:56;;;;;;;1.23;0.70;;;24.30;51.80;;;;;;4936097;28;20488;-69
2022/07/24 10:12:24;;;;;;;0.68;0.60;;;24.30;51.60;;;;;;4943390;29;20696;-70
2022/07/24 10:14:53;;;;;;;1.10;0.82;;;24.40;51.00;;;;;;4943827;28;20027;-69
2022/07/24 10:17:20;;;;;;;1.42;0.80;;;24.50;50.80;;;;;;4942830;28;20032;-69
2022/07/24 10:19:50;;;;;;;2.38;0.80;;;24.60;50.30;;;;;;4943136;28;20109;-69
2022/07/24 10:22:18;;;;;;;1.58;0.70;;;24.80;50.00;;;;;;4936064;28;20047;-70
2022/07/24 10:24:58;;;;;;;1.38;0.70;;;24.90;49.90;;;;;;4938743;28;20038;-70
2022/07/24 10:27:26;;;;;;;2.38;0.80;;;25.00;50.20;;;;;;4937449;29;20086;-69
2022/07/24 10:29:53;;;;;;;0.70;0.65;;;25.10;48.90;;;;;;4937065;28;20027;-70
2022/07/24 10:32:20;;;;;;;1.85;0.70;;;25.10;49.00;;;;;;4942992;28;20043;-69
2022/07/24 10:34:47;;;;;;;0.93;0.80;;;25.10;48.20;;;;;;4942651;28;20138;-69
2022/07/24 10:37:36;;;;;;;0.80;0.80;;;25.10;48.40;;;;;;4940031;28;20040;-69
2022/07/24 10:40:08;;;;;;;1.23;0.85;;;25.10;48.40;;;;;;4938854;28;20053;-70
2022/07/24 10:42:53;;;;;;;1.75;0.90;;;25.20;48.20;;;;;;4938040;29;20027;-70
2022/07/24 10:45:19;;;;;;;1.10;0.80;;;25.20;49.20;;;;;;4936048;29;20182;-69
2022/07/24 10:47:46;;;;;;;1.95;0.90;;;25.30;48.40;;;;;;4939985;29;20110;-70
2022/07/24 10:50:14;;;;;;;1.00;0.90;;;25.30;48.70;;;;;;4941046;28;20551;-69
2022/07/24 10:52:41;;;;;;;1.00;0.90;;;25.40;48.40;;;;;;4942127;28;20502;-70
2022/07/24 10:55:30;;;;;;;1.02;0.77;;;25.40;47.90;;;;;;4940169;28;20090;-69
2022/07/24 10:57:59;;;;;;;2.10;0.90;;;25.50;47.80;;;;;;4939313;29;20154;-69
2022/07/24 11:00:37;;;;;;;0.82;0.82;;;25.60;47.70;;;;;;4938094;28;20098;-69
2022/07/24 11:03:27;;;;;;;1.38;0.82;;;25.60;47.90;;;;;;4935146;29;20039;-70
2022/07/24 11:06:10;;;;;;;1.60;1.10;;;25.90;48.30;;;;;;4936529;29;20551;-70
2022/07/24 11:08:45;;;;;;;1.40;0.90;;;26.30;46.90;;;;;;4940820;29;20031;-70
2022/07/24 11:11:18;;;;;;;3.40;1.17;;;26.40;46.20;;;;;;4942348;28;20062;-70
2022/07/24 11:13:47;;;;;;;0.88;0.82;;;26.30;46.70;;;;;;4941302;28;20283;-69
2022/07/24 11:16:15;;;;;;;2.38;1.20;;;26.20;47.10;;;;;;4938698;28;20035;-70
2022/07/24 11:18:47;;;;;;;0.98;0.85;;;26.20;48.80;;;;;;4939658;28;20038;-69
2022/07/24 11:21:40;;;;;;;1.52;0.90;;;26.20;46.90;;;;;;4936789;28;20653;-70
2022/07/24 11:26:46;;;;;;;1.45;1.13;;;26.30;48.80;;;;;;4943518;29;20488;-69
2022/07/24 11:29:38;;;;;;;2.05;0.90;;;26.40;47.10;;;;;;4944191;28;20043;-70
2022/07/24 11:32:11;;;;;;;1.75;0.90;;;26.40;46.70;;;;;;4939501;28;20093;-70
2022/07/24 11:34:40;;;;;;;1.60;1.10;;;26.40;46.80;;;;;;4936264;29;20392;-69
2022/07/24 11:37:06;;;;;;;1.98;1.02;;;26.40;46.80;;;;;;4937172;28;20885;-69
2022/07/24 11:39:38;;;;;;;1.23;0.80;;;26.40;47.00;;;;;;4938512;28;20098;-69
2022/07/24 11:42:06;;;;;;;1.50;0.80;;;26.50;47.40;;;;;;4933774;28;20035;-70
2022/07/24 11:44:34;;;;;;;1.60;1.17;;;26.50;45.90;;;;;;4935417;29;20027;-69
2022/07/24 11:47:13;;;;;;;2.05;1.00;;;26.40;47.10;;;;;;4938990;29;20050;-70
2022/07/24 11:49:41;;;;;;;0.90;0.80;;;26.40;46.70;;;;;;4940722;28;20038;-69
2022/07/24 11:52:07;;;;;;;1.10;1.00;;;26.30;46.60;;;;;;4938857;29;20037;-70
2022/07/24 11:54:33;;;;;;;1.70;1.00;;;26.30;47.10;;;;;;4939014;28;20500;-69
2022/07/24 11:56:58;;;;;;;1.50;0.88;;;26.30;46.60;;;;;;4936717;28;20105;-69
2022/07/24 11:59:27;;;;;;;2.20;1.02;;;26.30;46.80;;;;;;4937072;28;20809;-69
2022/07/24 12:02:03;;;;;;;2.22;0.90;;;26.20;46.10;;;;;;4934084;29;20031;-69
2022/07/24 12:04:29;;;;;;;2.08;0.95;;;26.20;47.10;;;;;;4939098;29;20043;-70
2022/07/24 12:06:54;;;;;;;2.30;0.90;;;26.20;46.80;;;;;;4942786;28;20038;-69
2022/07/24 12:09:20;;;;;;;1.42;0.90;;;26.10;47.90;;;;;;4941192;28;20035;-68
2022/07/24 12:11:47;;;;;;;0.90;0.90;;;26.20;47.50;;;;;;4940057;28;20039;-70
2022/07/24 12:14:18;;;;;;;1.52;0.80;;;26.20;47.00;;;;;;4937612;28;20036;-69
2022/07/24 12:16:44;;;;;;;1.27;1.10;;;26.20;47.60;;;;;;4939506;29;20035;-70
2022/07/24 12:19:18;;;;;;;1.30;1.20;;;26.30;47.30;;;;;;4935586;29;20051;-70
2022/07/24 12:21:45;;;;;;;1.33;0.98;;;26.50;47.20;;;;;;4935843;29;20031;-69
2022/07/24 12:24:12;;;;;;;1.50;0.80;;;26.50;46.50;;;;;;4939921;29;20023;-70
2022/07/24 12:26:58;;;;;;;1.40;1.00;;;26.40;47.10;;;;;;4942384;28;20045;-69
2022/07/24 12:29:26;;;;;;;1.20;1.10;;;26.50;46.60;;;;;;4939665;28;20254;-69
2022/07/24 12:32:14;;;;;;;4.15;0.90;;;26.60;45.70;;;;;;4939222;28;20097;-70
2022/07/24 12:34:45;;;;;;;1.50;0.93;;;26.70;46.20;;;;;;4936811;29;20082;-70
2022/07/24 12:37:21;;;;;;;2.92;1.08;;;26.70;45.50;;;;;;4934503;29;20043;-69
2022/07/24 12:39:52;;;;;;;1.05;0.80;;;26.90;45.30;;;;;;4933718;28;20019;-70
2022/07/24 12:42:28;;;;;;;1.35;0.80;;;26.90;46.20;;;;;;4937631;29;20075;-69
2022/07/24 12:44:53;;;;;;;0.85;0.80;;;26.90;46.40;;;;;;4942331;29;20590;-70
2022/07/24 12:47:19;;;;;;;1.02;0.90;;;26.90;45.70;;;;;;4940384;28;20122;-70
2022/07/24 12:49:50;;;;;;;0.93;0.85;;;27.10;45.20;;;;;;4940252;28;20035;-70
2022/07/24 12:52:24;;;;;;;2.75;1.10;;;27.00;44.00;;;;;;4936670;29;20078;-69
2022/07/24 12:54:50;;;;;;;1.50;0.95;;;27.00;44.20;;;;;;4937040;29;20041;-70